createdAt,value
2022-08-04T00:00:00.454Z,95241.09
2022-08-04T00:03:02.402Z,95239.97
2022-08-04T00:05:32.044Z,95244.66
2022-08-04T00:08:20.610Z,95251.38
2022-08-04T00:10:55.031Z,95239.31
2022-08-04T00:13:27.769Z,95237.31
2022-08-04T00:15:58.712Z,95240.19
2022-08-04T00:18:41.896Z,95238.97
2022-08-04T00:21:14.909Z,95243.38
2022-08-04T00:24:10.716Z,95233.63
2022-08-04T00:26:33.561Z,95237.56
2022-08-04T00:29:01.170Z,95236.06
2022-08-04T00:31:33.241Z,95234.06
2022-08-04T00:34:16.075Z,95231.13
2022-08-04T00:36:45.959Z,95238.72
2022-08-04T00:39:14.532Z,95240.09
2022-08-04T00:42:07.063Z,95240.59
2022-08-04T00:44:50.589Z,95253.00
2022-08-04T00:47:42.042Z,95245.63
2022-08-04T00:50:16.438Z,95243.59
2022-08-04T00:53:05.388Z,95245.94
2022-08-04T00:55:57.572Z,95247.34
2022-08-04T00:59:01.588Z,95244.41
2022-08-04T01:01:37.211Z,95247.25
2022-08-04T01:04:15.886Z,95259.06
2022-08-04T01:07:12.294Z,95256.53
2022-08-04T01:10:01.501Z,95256.28
2022-08-04T01:12:31.263Z,95256.88
2022-08-04T01:15:18.078Z,95263.53
2022-08-04T01:18:07.410Z,95265.44
2022-08-04T01:21:00.186Z,95267.94
2022-08-04T01:24:04.457Z,95258.34
2022-08-04T01:26:57.617Z,95257.66
2022-08-04T01:29:36.403Z,95245.22
2022-08-04T01:32:19.240Z,95242.53
2022-08-04T01:35:46.711Z,95248.94
2022-08-04T01:38:23.322Z,95251.81
2022-08-04T01:40:55.338Z,95257.16
2022-08-04T01:43:23.641Z,95255.47
2022-08-04T01:45:56.947Z,95258.59
2022-08-04T01:48:25.779Z,95259.88
2022-08-04T01:50:54.083Z,95265.47
2022-08-04T01:53:22.088Z,95254.09
2022-08-04T01:55:55.551Z,95262.09
2022-08-04T01:58:25.090Z,95259.75
2022-08-04T02:01:05.254Z,95258.97
2022-08-04T02:04:20.873Z,95253.06
2022-08-04T02:06:50.004Z,95253.84
2022-08-04T02:09:27.099Z,95259.66
2022-08-04T02:12:05.603Z,95254.41
2022-08-04T02:14:56.103Z,95245.78
2022-08-04T02:17:30.295Z,95247.59
2022-08-04T02:20:03.607Z,95250.63
2022-08-04T02:22:33.391Z,95244.91
2022-08-04T02:25:24.317Z,95241.16
2022-08-04T02:28:00.024Z,95243.97
2022-08-04T02:30:57.291Z,95248.00
2022-08-04T02:33:36.054Z,95245.09
2022-08-04T02:36:05.675Z,95245.50
2022-08-04T02:38:42.652Z,95251.63
2022-08-04T02:41:11.393Z,95250.25
2022-08-04T02:43:51.109Z,95246.63
2022-08-04T02:46:21.496Z,95254.28
2022-08-04T02:48:51.198Z,95254.03
2022-08-04T02:51:25.085Z,95253.50
2022-08-04T02:53:56.151Z,95246.31
2022-08-04T02:56:24.943Z,95257.66
2022-08-04T02:58:56.599Z,95254.44
2022-08-04T03:01:24.234Z,95253.84
2022-08-04T03:04:24.482Z,95231.66
2022-08-04T03:07:15.620Z,95254.22
2022-08-04T03:09:51.719Z,95263.72
2022-08-04T03:12:58.923Z,95260.97
2022-08-04T03:15:52.298Z,95266.91
2022-08-04T03:18:40.210Z,95259.31
2022-08-04T03:21:15.987Z,95259.06
2022-08-04T03:24:20.463Z,95255.50
2022-08-04T03:26:50.147Z,95258.41
2022-08-04T03:29:40.089Z,95255.41
2022-08-04T03:32:21.592Z,95250.59
2022-08-04T03:35:22.669Z,95260.69
2022-08-04T03:38:05.274Z,95263.56
2022-08-04T03:40:40.488Z,95258.94
2022-08-04T03:43:57.197Z,95258.16
2022-08-04T03:46:29.307Z,95257.03
2022-08-04T03:49:23.795Z,95254.66
2022-08-04T03:52:30.788Z,95253.78
2022-08-04T03:55:38.717Z,95260.84
2022-08-04T03:58:30.554Z,95266.19
2022-08-04T04:02:01.387Z,95263.44
2022-08-04T04:04:55.254Z,95266.19
2022-08-04T04:07:38.644Z,95264.63
2022-08-04T04:10:43.585Z,95266.47
2022-08-04T04:13:33.185Z,95265.25
2022-08-04T04:16:11.061Z,95270.06
2022-08-04T04:19:06.860Z,95279.22
2022-08-04T04:21:56.926Z,95279.75
2022-08-04T04:24:35.844Z,95288.75
2022-08-04T04:27:34.304Z,95273.53
2022-08-04T04:30:04.029Z,95268.59
2022-08-04T04:33:09.019Z,95282.53
2022-08-04T04:36:03.459Z,95273.34
2022-08-04T04:38:42.087Z,95275.22
2022-08-04T04:41:21.381Z,95273.97
2022-08-04T04:44:06.967Z,95275.28
2022-08-04T04:47:16.187Z,95280.53
2022-08-04T04:49:54.606Z,95290.81
2022-08-04T04:52:28.354Z,95279.16
2022-08-04T04:55:21.116Z,95278.94
2022-08-04T04:57:53.051Z,95281.53
2022-08-04T05:00:25.250Z,95287.94
2022-08-04T05:03:01.110Z,95282.66
2022-08-04T05:05:44.371Z,95277.06
2022-08-04T05:08:43.686Z,95288.22
2022-08-04T05:11:44.567Z,95289.31
2022-08-04T05:14:36.198Z,95293.47
2022-08-04T05:17:27.162Z,95292.19
2022-08-04T05:20:48.245Z,95285.38
2022-08-04T05:23:23.220Z,95290.16
2022-08-04T05:25:59.207Z,95290.63
2022-08-04T05:28:36.883Z,95292.13
2022-08-04T05:31:26.063Z,95293.06
2022-08-04T05:34:07.412Z,95296.53
2022-08-04T05:36:43.295Z,95291.06
2022-08-04T05:39:21.779Z,95295.19
2022-08-04T05:41:55.694Z,95283.53
2022-08-04T05:44:26.775Z,95291.50
2022-08-04T05:46:57.095Z,95289.47
2022-08-04T05:49:26.166Z,95296.22
2022-08-04T05:51:55.958Z,95294.59
2022-08-04T05:54:24.425Z,95290.66
2022-08-04T05:56:53.659Z,95289.03
2022-08-04T05:59:20.824Z,95291.78
2022-08-04T06:01:56.006Z,95300.75
2022-08-04T06:04:31.146Z,95305.00
2022-08-04T06:06:57.998Z,95301.19
2022-08-04T06:09:25.076Z,95303.66
2022-08-04T06:11:54.614Z,95302.25
2022-08-04T06:14:39.569Z,95291.38
2022-08-04T06:18:33.621Z,95293.13
2022-08-04T06:20:20.007Z,95293.81
2022-08-04T06:22:49.521Z,95294.47
2022-08-04T06:25:21.639Z,95290.94
2022-08-04T06:27:50.090Z,95299.50
2022-08-04T06:30:19.461Z,95307.00
2022-08-04T06:33:03.458Z,95302.22
2022-08-04T06:35:33.023Z,95306.53
2022-08-04T06:38:01.663Z,95307.66
2022-08-04T06:40:33.356Z,95300.50
2022-08-04T06:43:03.864Z,95303.88
2022-08-04T06:45:31.958Z,95302.72
2022-08-04T06:48:01.666Z,95296.03
2022-08-04T06:51:32.783Z,95304.47
2022-08-04T06:53:17.436Z,95307.28
2022-08-04T06:55:46.310Z,95310.91
2022-08-04T06:58:14.943Z,95299.66
2022-08-04T07:00:44.448Z,95304.09
2022-08-04T07:03:12.152Z,95302.53
2022-08-04T07:05:40.996Z,95305.41
2022-08-04T07:08:11.181Z,95299.31
2022-08-04T07:10:39.313Z,95302.06
2022-08-04T07:13:07.642Z,95308.47
2022-08-04T07:15:36.025Z,95299.50
2022-08-04T07:18:04.842Z,95296.91
2022-08-04T07:20:35.685Z,95295.25
2022-08-04T07:23:07.402Z,95291.28
2022-08-04T07:26:11.433Z,95287.91
2022-08-04T07:28:26.769Z,95289.53
2022-08-04T07:30:55.115Z,95276.34
2022-08-04T07:33:23.176Z,95267.59
2022-08-04T07:36:09.717Z,95290.50
2022-08-04T07:38:50.822Z,95273.44
2022-08-04T07:41:40.700Z,95280.19
2022-08-04T07:44:09.371Z,95258.91
2022-08-04T07:46:37.231Z,95282.09
2022-08-04T07:49:04.973Z,95280.34
2022-08-04T07:51:32.458Z,95276.34
2022-08-04T07:54:00.946Z,95276.03
2022-08-04T07:56:28.475Z,95268.25
2022-08-04T07:58:56.021Z,95273.41
2022-08-04T08:01:27.145Z,95272.50
2022-08-04T08:03:56.382Z,95271.38
2022-08-04T08:06:33.140Z,95264.19
2022-08-04T08:09:13.781Z,95265.97
2022-08-04T08:12:36.928Z,95260.31
2022-08-04T08:14:37.127Z,95278.50
2022-08-04T08:17:04.930Z,95274.75
2022-08-04T08:19:32.860Z,95272.69
2022-08-04T08:22:01.847Z,95269.31
2022-08-04T08:24:35.944Z,95267.66
2022-08-04T08:27:07.066Z,95274.22
2022-08-04T08:29:35.611Z,95276.19
2022-08-04T08:32:08.231Z,95263.13
2022-08-04T08:34:37.853Z,95272.56
2022-08-04T08:37:24.402Z,95268.34
2022-08-04T08:40:10.964Z,95262.78
2022-08-04T08:42:40.487Z,95275.88
2022-08-04T08:45:31.193Z,95270.41
2022-08-04T08:56:31.206Z,95261.34
2022-08-04T08:59:35.952Z,95258.03
2022-08-04T09:02:40.152Z,95253.19
2022-08-04T09:05:18.777Z,95249.28
2022-08-04T09:08:27.142Z,95245.38
2022-08-04T09:11:23.355Z,95252.72
2022-08-04T09:13:57.315Z,95251.09
2022-08-04T09:16:26.689Z,95243.75
2022-08-04T09:19:08.492Z,95238.78
2022-08-04T09:21:56.716Z,95237.31
2022-08-04T09:24:47.280Z,95234.19
2022-08-04T09:27:20.054Z,95230.75
2022-08-04T09:29:58.236Z,95242.50
2022-08-04T09:32:44.669Z,95248.25
2022-08-04T09:35:15.134Z,95230.34
2022-08-04T09:38:03.486Z,95233.66
2022-08-04T09:40:53.794Z,95232.34
2022-08-04T09:44:42.836Z,95226.19
2022-08-04T09:46:40.601Z,95232.75
2022-08-04T09:49:16.567Z,95226.91
2022-08-04T09:51:58.295Z,95238.56
2022-08-04T09:54:30.486Z,95239.19
2022-08-04T09:57:07.757Z,95235.53
2022-08-04T10:00:05.035Z,95224.22
2022-08-04T10:02:42.751Z,95229.25
2022-08-04T10:05:14.988Z,95229.88
2022-08-04T10:08:15.331Z,95221.84
2022-08-04T10:11:22.034Z,95221.16
2022-08-04T10:13:56.558Z,95221.59
2022-08-04T10:16:45.155Z,95224.69
2022-08-04T10:19:33.091Z,95219.19
2022-08-04T10:22:27.311Z,95211.50
2022-08-04T10:25:44.459Z,95211.50
2022-08-04T10:28:09.360Z,95206.84
2022-08-04T10:30:40.619Z,95213.06
2022-08-04T10:33:49.432Z,95202.97
2022-08-04T10:36:21.315Z,95207.59
2022-08-04T10:38:57.072Z,95206.84
2022-08-04T10:41:42.300Z,95199.84
2022-08-04T10:44:53.233Z,95200.59
2022-08-04T10:47:32.055Z,95202.06
2022-08-04T10:50:01.417Z,95200.19
2022-08-04T10:52:36.151Z,95195.69
2022-08-04T10:55:13.334Z,95192.47
2022-08-04T10:57:46.764Z,95193.25
2022-08-04T11:00:16.492Z,95194.59
2022-08-04T11:02:58.515Z,95186.97
2022-08-04T11:05:59.143Z,95185.84
2022-08-04T11:08:33.395Z,95176.97
2022-08-04T11:12:01.742Z,95177.53
2022-08-04T11:14:39.260Z,95174.28
2022-08-04T11:17:14.401Z,95176.25
2022-08-04T11:20:24.884Z,95174.41
2022-08-04T11:23:00.841Z,95175.00
2022-08-04T11:25:33.239Z,95170.94
2022-08-04T11:28:03.995Z,95166.38
2022-08-04T11:31:04.813Z,95166.88
2022-08-04T11:33:46.483Z,95174.66
2022-08-04T11:36:25.110Z,95163.84
2022-08-04T11:39:30.672Z,95162.81
2022-08-04T11:42:22.766Z,95159.22
2022-08-04T11:44:56.047Z,95165.06
2022-08-04T11:47:33.027Z,95170.81
2022-08-04T11:50:08.808Z,95173.16
2022-08-04T11:52:39.868Z,95162.56
2022-08-04T11:55:11.343Z,95159.00
2022-08-04T11:57:39.265Z,95152.59
2022-08-04T12:00:10.262Z,95155.19
2022-08-04T12:02:40.147Z,95152.38
2022-08-04T12:05:09.289Z,95153.66
2022-08-04T12:08:03.352Z,95151.66
2022-08-04T12:10:47.918Z,95151.03
2022-08-04T12:13:42.051Z,95152.56
2022-08-04T12:16:17.714Z,95163.88
2022-08-04T12:18:54.872Z,95165.03
2022-08-04T12:21:53.066Z,95165.50
2022-08-04T12:24:28.027Z,95164.25
2022-08-04T12:26:59.689Z,95165.13
2022-08-04T12:29:31.481Z,95149.88
2022-08-04T12:32:03.731Z,95152.13
2022-08-04T12:34:46.109Z,95144.38
2022-08-04T12:37:24.317Z,95156.00
2022-08-04T12:40:27.417Z,95153.19
2022-08-04T12:43:22.565Z,95135.81
2022-08-04T12:45:52.108Z,95133.56
2022-08-04T12:48:21.520Z,95128.75
2022-08-04T12:50:54.016Z,95126.47
2022-08-04T12:53:31.469Z,95131.22
2022-08-04T12:56:02.401Z,95129.75
2022-08-04T12:58:42.885Z,95126.94
2022-08-04T13:02:08.594Z,95121.94
2022-08-04T13:04:15.483Z,95133.72
2022-08-04T13:06:44.599Z,95131.38
2022-08-04T13:09:17.525Z,95130.66
2022-08-04T13:11:53.090Z,95122.13
2022-08-04T13:14:28.461Z,95120.56
2022-08-04T13:17:01.110Z,95126.69
2022-08-04T13:19:29.879Z,95122.47
2022-08-04T13:22:02.971Z,95121.25
2022-08-04T13:24:34.777Z,95113.31
2022-08-04T13:27:16.130Z,95110.69
2022-08-04T13:29:58.180Z,95112.88
2022-08-04T13:32:29.708Z,95109.59
2022-08-04T13:35:00.010Z,95109.25
2022-08-04T13:37:33.779Z,95104.00
2022-08-04T13:40:06.554Z,95094.88
2022-08-04T13:42:38.745Z,95098.97
2022-08-04T13:45:08.737Z,95093.84
2022-08-04T13:47:39.152Z,95092.97
2022-08-04T13:50:11.664Z,95088.06
2022-08-04T13:52:40.642Z,95088.19
2022-08-04T13:55:09.118Z,95081.34
2022-08-04T13:57:45.090Z,95079.06
2022-08-04T14:00:12.657Z,95086.72
2022-08-04T14:02:42.802Z,95085.03
2022-08-04T14:05:27.264Z,95082.81
2022-08-04T14:08:26.433Z,95081.41
2022-08-04T14:10:57.019Z,95071.06
2022-08-04T14:13:41.814Z,95081.59
2022-08-04T14:16:34.900Z,95062.97
2022-08-04T14:19:01.941Z,95071.44
2022-08-04T14:21:28.855Z,95072.94
2022-08-04T14:23:57.332Z,95073.66
2022-08-04T14:26:35.355Z,95069.16
2022-08-04T14:29:26.342Z,95067.66
2022-08-04T14:32:05.919Z,95059.41
2022-08-04T14:34:44.797Z,95063.47
2022-08-04T14:37:20.674Z,95069.28
2022-08-04T14:40:08.661Z,95067.97
2022-08-04T14:42:55.856Z,95066.00
2022-08-04T14:45:34.340Z,95072.63
2022-08-04T14:48:02.826Z,95074.81
2022-08-04T14:50:35.357Z,95064.06
2022-08-04T14:53:23.177Z,95065.31
2022-08-04T14:55:53.491Z,95063.16
2022-08-04T14:58:36.168Z,95055.81
2022-08-04T15:01:10.159Z,95052.19
2022-08-04T15:03:49.956Z,95059.38
2022-08-04T15:06:27.900Z,95052.69
2022-08-04T15:08:57.623Z,95060.44
2022-08-04T15:11:25.001Z,95055.91
2022-08-04T15:13:56.640Z,95059.09
2022-08-04T15:16:24.891Z,95056.34
2022-08-04T15:18:54.621Z,95061.38
2022-08-04T15:21:25.964Z,95053.81
2022-08-04T15:23:52.902Z,95048.53
2022-08-04T15:26:32.240Z,95051.13
2022-08-04T15:29:06.880Z,95050.59
2022-08-04T15:32:03.950Z,95042.13
2022-08-04T15:34:25.898Z,95039.84
2022-08-04T15:36:57.997Z,95041.63
2022-08-04T15:39:36.147Z,95049.56
2022-08-04T15:42:23.952Z,95027.81
2022-08-04T15:45:19.071Z,95055.34
2022-08-04T15:48:05.725Z,95043.56
2022-08-04T15:50:32.867Z,95050.28
2022-08-04T15:53:12.615Z,95043.59
2022-08-04T15:55:43.132Z,95052.66
2022-08-04T15:58:13.073Z,95056.66
2022-08-04T16:00:54.740Z,95052.66
2022-08-04T16:03:59.161Z,95048.75
2022-08-04T16:06:23.794Z,95043.41
2022-08-04T16:09:01.254Z,95041.00
2022-08-04T16:11:36.862Z,95042.75
2022-08-04T16:14:09.531Z,95044.41
2022-08-04T16:16:50.013Z,95046.97
2022-08-04T16:19:41.283Z,95050.75
2022-08-04T16:22:12.194Z,95044.53
2022-08-04T16:24:40.744Z,95045.38
2022-08-04T16:27:14.426Z,95045.63
2022-08-04T16:29:42.922Z,95040.47
2022-08-04T16:32:12.433Z,95047.28
2022-08-04T16:34:48.954Z,95048.50
2022-08-04T16:37:20.025Z,95040.75
2022-08-04T16:39:50.189Z,95044.22
2022-08-04T16:42:31.744Z,95059.44
2022-08-04T16:45:09.226Z,95046.44
2022-08-04T16:47:49.206Z,95054.16
2022-08-04T16:50:24.775Z,95053.13
2022-08-04T16:52:53.817Z,95055.88
2022-08-04T16:55:28.712Z,95054.19
2022-08-04T16:57:58.870Z,95055.28
2022-08-04T17:00:34.972Z,95054.06
2022-08-04T17:03:11.573Z,95057.50
2022-08-04T17:05:40.419Z,95059.41
2022-08-04T17:10:56.324Z,95067.34
2022-08-04T17:14:03.552Z,95065.78
2022-08-04T17:16:24.015Z,95069.69
2022-08-04T17:18:53.668Z,95064.19
2022-08-04T17:21:23.863Z,95066.72
2022-08-04T17:24:15.932Z,95069.44
2022-08-04T17:26:51.946Z,95071.91
2022-08-04T17:29:43.774Z,95080.06
2022-08-04T17:32:21.645Z,95079.41
2022-08-04T17:34:59.971Z,95087.91
2022-08-04T17:37:38.815Z,95082.50
2022-08-04T17:40:22.744Z,95081.06
2022-08-04T17:44:00.926Z,95084.59
2022-08-04T17:46:28.257Z,95087.34
2022-08-04T17:49:03.295Z,95093.22
2022-08-04T17:52:04.549Z,95098.25
2022-08-04T17:54:29.903Z,95097.47
2022-08-04T17:57:21.696Z,95093.19
2022-08-04T17:59:56.725Z,95100.97
2022-08-04T18:02:32.664Z,95095.16
2022-08-04T18:05:07.826Z,95095.97
2022-08-04T18:10:54.324Z,95108.78
2022-08-04T18:13:26.469Z,95106.84
2022-08-04T18:16:14.272Z,95110.72
2022-08-04T18:19:08.828Z,95116.13
2022-08-04T18:21:46.881Z,95117.97
2022-08-04T18:24:35.147Z,95113.75
2022-08-04T18:27:09.753Z,95118.84
2022-08-04T18:29:41.798Z,95116.84
2022-08-04T18:32:32.962Z,95126.16
2022-08-04T18:35:05.735Z,95122.22
2022-08-04T18:38:06.528Z,95125.38
2022-08-04T18:40:30.177Z,95123.78
2022-08-04T18:43:02.210Z,95129.97
2022-08-04T18:45:34.679Z,95126.31
2022-08-04T18:48:04.224Z,95132.41
2022-08-04T18:51:11.157Z,95135.94
2022-08-04T18:53:35.660Z,95131.38
2022-08-04T18:56:06.325Z,95137.69
2022-08-04T18:58:52.103Z,95143.84
2022-08-04T19:01:19.930Z,95150.09
2022-08-04T19:03:54.022Z,95147.72
2022-08-04T19:06:26.065Z,95154.44
2022-08-04T19:08:54.356Z,95150.28
2022-08-04T19:11:54.644Z,95151.56
2022-08-04T19:14:13.220Z,95147.50
2022-08-04T19:16:41.500Z,95156.78
2022-08-04T19:19:13.884Z,95152.09
2022-08-04T19:22:00.608Z,95153.66
2022-08-04T19:24:34.458Z,95154.09
2022-08-04T19:27:07.470Z,95148.66
2022-08-04T19:29:45.119Z,95154.84
2022-08-04T19:32:15.784Z,95155.47
2022-08-04T19:34:47.876Z,95148.47
2022-08-04T19:37:55.969Z,95159.88
2022-08-04T19:40:09.526Z,95150.22
2022-08-04T19:42:37.078Z,95156.84
2022-08-04T19:45:04.621Z,95163.41
2022-08-04T19:48:16.912Z,95162.25
2022-08-04T19:50:18.491Z,95157.25
2022-08-04T19:52:51.325Z,95162.97
2022-08-04T19:55:36.666Z,95158.44
2022-08-04T19:58:08.713Z,95167.69
2022-08-04T20:00:37.773Z,95175.34
2022-08-04T20:03:11.217Z,95170.59
2022-08-04T20:05:55.339Z,95168.75
2022-08-04T20:08:26.509Z,95175.00
2022-08-04T20:10:55.460Z,95176.44
2022-08-04T20:13:25.528Z,95179.41
2022-08-04T20:16:00.797Z,95173.88
2022-08-04T20:18:35.515Z,95171.63
2022-08-04T20:21:11.200Z,95168.69
2022-08-04T20:23:50.017Z,95178.25
2022-08-04T20:26:17.370Z,95166.38
2022-08-04T20:28:45.828Z,95174.81
2022-08-04T20:31:18.737Z,95177.88
2022-08-04T20:33:53.460Z,95188.63
2022-08-04T20:36:21.317Z,95177.09
2022-08-04T20:38:52.575Z,95184.81
2022-08-04T20:41:23.270Z,95178.53
2022-08-04T20:43:50.831Z,95192.78
2022-08-04T20:46:29.541Z,95184.88
2022-08-04T20:48:57.979Z,95188.31
2022-08-04T20:51:33.507Z,95179.13
2022-08-04T20:54:16.538Z,95186.59
2022-08-04T20:56:45.053Z,95185.56
2022-08-04T20:59:18.746Z,95194.69
2022-08-04T21:01:49.066Z,95192.88
2022-08-04T21:04:31.748Z,95200.56
2022-08-04T21:06:59.950Z,95192.97
2022-08-04T21:09:38.429Z,95195.47
2022-08-04T21:12:28.486Z,95186.03
2022-08-04T21:14:59.999Z,95195.09
2022-08-04T21:17:58.421Z,95187.97
2022-08-04T21:20:14.224Z,95177.97
2022-08-04T21:22:54.204Z,95193.31
2022-08-04T21:25:22.310Z,95204.31
2022-08-04T21:27:49.805Z,95194.97
2022-08-04T21:30:25.048Z,95203.84
2022-08-04T21:35:40.521Z,95200.97
2022-08-04T21:38:17.106Z,95181.63
2022-08-04T21:41:01.963Z,95202.41
2022-08-04T21:43:42.412Z,95197.84
2022-08-04T21:46:11.354Z,95198.47
2022-08-04T21:48:39.085Z,95210.56
2022-08-04T21:51:59.017Z,95205.78
2022-08-04T21:54:17.071Z,95201.44
2022-08-04T21:56:50.625Z,95206.44
2022-08-04T21:59:18.592Z,95211.97
2022-08-04T22:01:57.368Z,95206.72
2022-08-04T22:04:26.928Z,95209.50
2022-08-04T22:06:53.779Z,95207.88
2022-08-04T22:09:22.018Z,95207.78
2022-08-04T22:11:50.813Z,95208.13
2022-08-04T22:14:27.334Z,95204.63
2022-08-04T22:16:57.379Z,95198.44
2022-08-04T22:19:39.905Z,95206.00
2022-08-04T22:22:12.594Z,95202.56
2022-08-04T22:24:40.547Z,95206.75
2022-08-04T22:27:11.438Z,95186.19
2022-08-04T22:29:39.214Z,95203.72
2022-08-04T22:32:11.338Z,95201.63
2022-08-04T22:34:45.360Z,95203.91
2022-08-04T22:37:12.761Z,95203.31
2022-08-04T22:39:56.145Z,95195.25
2022-08-04T22:42:24.235Z,95202.69
2022-08-04T22:44:52.176Z,95201.44
2022-08-04T22:47:20.631Z,95196.78
2022-08-04T22:49:56.453Z,95201.44
2022-08-04T22:52:34.231Z,95198.91
2022-08-04T22:55:00.967Z,95210.31
2022-08-04T22:57:42.935Z,95206.25
2022-08-04T23:00:15.951Z,95203.84
2022-08-04T23:02:43.394Z,95202.38
2022-08-04T23:05:11.035Z,95212.34
2022-08-04T23:07:49.531Z,95205.09
2022-08-04T23:10:18.312Z,95200.13
2022-08-04T23:12:51.444Z,95192.94
2022-08-04T23:15:18.305Z,95192.16
2022-08-04T23:17:48.094Z,95195.28
2022-08-04T23:20:23.563Z,95205.59
2022-08-04T23:22:59.956Z,95202.41
2022-08-04T23:26:07.581Z,95199.13
2022-08-04T23:28:31.052Z,95203.09
2022-08-04T23:30:57.825Z,95196.69
2022-08-04T23:33:24.867Z,95205.59
2022-08-04T23:36:11.920Z,95197.97
2022-08-04T23:38:39.217Z,95200.66
2022-08-04T23:41:17.255Z,95200.75
2022-08-04T23:43:55.510Z,95196.88
2022-08-04T23:46:23.410Z,95201.53
2022-08-04T23:48:52.115Z,95201.44
2022-08-04T23:51:19.541Z,95203.28
2022-08-04T23:54:02.213Z,95198.78
2022-08-04T23:56:32.872Z,95201.78
2022-08-04T23:59:03.809Z,95209.16
